sensor_id;sensor_type;location;lat;lon;timestamp;P1;durP1;ratioP1;P2;durP2;ratioP2
1603;SDS011;795;49.296;11.348;2022-09-09T00:02:05;6.67;;;4.10;;
1603;SDS011;795;49.296;11.348;2022-09-09T00:07:43;5.23;;;4.43;;
1603;SDS011;795;49.296;11.348;2022-09-09T00:10:28;6.93;;;4.10;;
1603;SDS011;795;49.296;11.348;2022-09-09T00:18:48;5.00;;;4.50;;
1603;SDS011;795;49.296;11.348;2022-09-09T00:21:43;5.13;;;4.73;;
1603;SDS011;795;49.296;11.348;2022-09-09T00:29:57;6.20;;;5.13;;
1603;SDS011;795;49.296;11.348;2022-09-09T00:32:46;5.97;;;5.37;;
1603;SDS011;795;49.296;11.348;2022-09-09T00:35:25;8.33;;;5.50;;
1603;SDS011;795;49.296;11.348;2022-09-09T00:38:10;5.07;;;4.67;;
1603;SDS011;795;49.296;11.348;2022-09-09T00:41:06;5.57;;;4.77;;
1603;SDS011;795;49.296;11.348;2022-09-09T00:44:28;6.53;;;4.90;;
1603;SDS011;795;49.296;11.348;2022-09-09T00:56:16;5.63;;;4.50;;
1603;SDS011;795;49.296;11.348;2022-09-09T00:59:08;6.40;;;5.77;;
1603;SDS011;795;49.296;11.348;2022-09-09T01:02:27;6.10;;;5.20;;
1603;SDS011;795;49.296;11.348;2022-09-09T01:05:30;6.90;;;5.90;;
1603;SDS011;795;49.296;11.348;2022-09-09T01:11:26;6.80;;;6.20;;
1603;SDS011;795;49.296;11.348;2022-09-09T01:19:52;13.23;;;6.00;;
1603;SDS011;795;49.296;11.348;2022-09-09T01:26:44;6.10;;;5.53;;
1603;SDS011;795;49.296;11.348;2022-09-09T01:29:15;6.40;;;5.90;;
1603;SDS011;795;49.296;11.348;2022-09-09T01:34:49;7.30;;;6.60;;
1603;SDS011;795;49.296;11.348;2022-09-09T01:37:18;6.27;;;5.77;;
1603;SDS011;795;49.296;11.348;2022-09-09T01:39:45;7.60;;;6.90;;
1603;SDS011;795;49.296;11.348;2022-09-09T01:42:13;6.40;;;5.50;;
1603;SDS011;795;49.296;11.348;2022-09-09T01:44:42;6.33;;;5.73;;
1603;SDS011;795;49.296;11.348;2022-09-09T01:47:09;6.30;;;5.70;;
1603;SDS011;795;49.296;11.348;2022-09-09T01:49:37;5.83;;;5.33;;
1603;SDS011;795;49.296;11.348;2022-09-09T01:52:03;10.53;;;5.93;;
1603;SDS011;795;49.296;11.348;2022-09-09T01:54:32;5.47;;;5.07;;
1603;SDS011;795;49.296;11.348;2022-09-09T01:57:06;6.93;;;5.90;;
1603;SDS011;795;49.296;11.348;2022-09-09T02:00:06;6.10;;;5.60;;
1603;SDS011;795;49.296;11.348;2022-09-09T02:02:48;5.73;;;4.87;;
1603;SDS011;795;49.296;11.348;2022-09-09T02:05:39;5.40;;;5.00;;
1603;SDS011;795;49.296;11.348;2022-09-09T02:11:16;8.77;;;5.13;;
1603;SDS011;795;49.296;11.348;2022-09-09T02:13:48;6.40;;;6.00;;
1603;SDS011;795;49.296;11.348;2022-09-09T02:16:24;6.43;;;5.70;;
1603;SDS011;795;49.296;11.348;2022-09-09T02:21:54;6.60;;;5.87;;
1603;SDS011;795;49.296;11.348;2022-09-09T02:24:26;9.97;;;6.20;;
1603;SDS011;795;49.296;11.348;2022-09-09T02:26:59;10.37;;;5.43;;
1603;SDS011;795;49.296;11.348;2022-09-09T02:29:36;6.77;;;6.17;;
1603;SDS011;795;49.296;11.348;2022-09-09T02:32:10;7.13;;;6.53;;
1603;SDS011;795;49.296;11.348;2022-09-09T02:34:45;7.07;;;6.57;;
1603;SDS011;795;49.296;11.348;2022-09-09T02:37:22;6.17;;;5.60;;
1603;SDS011;795;49.296;11.348;2022-09-09T02:39:57;6.60;;;5.77;;
1603;SDS011;795;49.296;11.348;2022-09-09T02:42:24;6.70;;;6.10;;
1603;SDS011;795;49.296;11.348;2022-09-09T02:44:51;8.87;;;5.70;;
1603;SDS011;795;49.296;11.348;2022-09-09T02:50:15;6.30;;;5.80;;
1603;SDS011;795;49.296;11.348;2022-09-09T02:53:12;5.63;;;5.13;;
1603;SDS011;795;49.296;11.348;2022-09-09T02:58:42;6.00;;;5.53;;
1603;SDS011;795;49.296;11.348;2022-09-09T03:01:09;5.77;;;5.23;;
1603;SDS011;795;49.296;11.348;2022-09-09T03:03:37;9.97;;;6.33;;
1603;SDS011;795;49.296;11.348;2022-09-09T03:06:04;6.00;;;5.50;;
1603;SDS011;795;49.296;11.348;2022-09-09T03:08:31;11.03;;;5.67;;
1603;SDS011;795;49.296;11.348;2022-09-09T03:10:58;5.57;;;5.07;;
1603;SDS011;795;49.296;11.348;2022-09-09T03:13:28;6.63;;;4.80;;
1603;SDS011;795;49.296;11.348;2022-09-09T03:15:56;5.80;;;5.40;;
1603;SDS011;795;49.296;11.348;2022-09-09T03:18:23;6.80;;;5.83;;
1603;SDS011;795;49.296;11.348;2022-09-09T03:20:51;5.70;;;5.30;;
1603;SDS011;795;49.296;11.348;2022-09-09T03:23:20;6.03;;;5.40;;
1603;SDS011;795;49.296;11.348;2022-09-09T03:25:48;6.00;;;5.37;;
1603;SDS011;795;49.296;11.348;2022-09-09T03:28:17;5.90;;;5.30;;
1603;SDS011;795;49.296;11.348;2022-09-09T03:30:44;6.87;;;6.20;;
1603;SDS011;795;49.296;11.348;2022-09-09T03:33:11;6.40;;;5.73;;
1603;SDS011;795;49.296;11.348;2022-09-09T03:35:38;6.97;;;6.43;;
1603;SDS011;795;49.296;11.348;2022-09-09T03:38:13;7.73;;;6.90;;
1603;SDS011;795;49.296;11.348;2022-09-09T03:40:47;7.00;;;6.43;;
1603;SDS011;795;49.296;11.348;2022-09-09T03:43:23;7.03;;;6.47;;
1603;SDS011;795;49.296;11.348;2022-09-09T03:45:52;9.90;;;7.00;;
1603;SDS011;795;49.296;11.348;2022-09-09T03:48:24;6.70;;;6.10;;
1603;SDS011;795;49.296;11.348;2022-09-09T03:50:54;11.93;;;6.70;;
1603;SDS011;795;49.296;11.348;2022-09-09T03:53:23;6.97;;;6.27;;
1603;SDS011;795;49.296;11.348;2022-09-09T03:55:52;7.40;;;6.70;;
1603;SDS011;795;49.296;11.348;2022-09-09T03:58:25;7.07;;;6.50;;
1603;SDS011;795;49.296;11.348;2022-09-09T04:00:54;8.50;;;7.70;;
1603;SDS011;795;49.296;11.348;2022-09-09T04:03:31;8.50;;;7.70;;
1603;SDS011;795;49.296;11.348;2022-09-09T04:05:59;8.03;;;7.33;;
1603;SDS011;795;49.296;11.348;2022-09-09T04:08:29;9.10;;;7.40;;
1603;SDS011;795;49.296;11.348;2022-09-09T04:10:58;8.80;;;7.90;;
1603;SDS011;795;49.296;11.348;2022-09-09T04:13:31;7.60;;;7.00;;
1603;SDS011;795;49.296;11.348;2022-09-09T04:16:01;11.77;;;9.07;;
1603;SDS011;795;49.296;11.348;2022-09-09T04:18:30;9.10;;;7.30;;
1603;SDS011;795;49.296;11.348;2022-09-09T04:20:58;8.90;;;8.00;;
1603;SDS011;795;49.296;11.348;2022-09-09T04:23:25;7.40;;;6.80;;
1603;SDS011;795;49.296;11.348;2022-09-09T04:25:58;8.03;;;7.23;;
1603;SDS011;795;49.296;11.348;2022-09-09T04:28:28;10.10;;;6.63;;
1603;SDS011;795;49.296;11.348;2022-09-09T04:31:15;6.90;;;6.30;;
1603;SDS011;795;49.296;11.348;2022-09-09T04:33:49;7.93;;;7.00;;
1603;SDS011;795;49.296;11.348;2022-09-09T04:36:17;9.83;;;6.53;;
1603;SDS011;795;49.296;11.348;2022-09-09T04:38:46;8.00;;;7.30;;
1603;SDS011;795;49.296;11.348;2022-09-09T04:41:14;9.53;;;6.30;;
1603;SDS011;795;49.296;11.348;2022-09-09T04:43:42;6.60;;;6.10;;
1603;SDS011;795;49.296;11.348;2022-09-09T04:46:11;7.10;;;6.50;;
1603;SDS011;795;49.296;11.348;2022-09-09T04:48:38;7.73;;;6.90;;
1603;SDS011;795;49.296;11.348;2022-09-09T04:51:08;7.10;;;6.40;;
1603;SDS011;795;49.296;11.348;2022-09-09T04:53:39;8.80;;;7.20;;
1603;SDS011;795;49.296;11.348;2022-09-09T04:58:40;7.00;;;6.13;;
1603;SDS011;795;49.296;11.348;2022-09-09T05:01:11;9.37;;;6.90;;
1603;SDS011;795;49.296;11.348;2022-09-09T05:03:44;6.80;;;5.50;;
1603;SDS011;795;49.296;11.348;2022-09-09T05:06:13;7.60;;;6.10;;
1603;SDS011;795;49.296;11.348;2022-09-09T05:08:44;8.33;;;6.30;;
1603;SDS011;795;49.296;11.348;2022-09-09T05:11:22;6.23;;;5.60;;
1603;SDS011;795;49.296;11.348;2022-09-09T05:13:53;6.50;;;5.80;;
1603;SDS011;795;49.296;11.348;2022-09-09T05:16:20;6.10;;;5.50;;
1603;SDS011;795;49.296;11.348;2022-09-09T05:18:49;5.83;;;5.33;;
1603;SDS011;795;49.296;11.348;2022-09-09T05:21:20;11.17;;;5.87;;
1603;SDS011;795;49.296;11.348;2022-09-09T05:23:52;8.23;;;6.57;;
1603;SDS011;795;49.296;11.348;2022-09-09T05:26:20;7.53;;;6.83;;
1603;SDS011;795;49.296;11.348;2022-09-09T05:28:48;8.07;;;6.37;;
1603;SDS011;795;49.296;11.348;2022-09-09T05:31:16;7.17;;;6.43;;
1603;SDS011;795;49.296;11.348;2022-09-09T05:33:45;7.60;;;6.63;;
1603;SDS011;795;49.296;11.348;2022-09-09T05:36:19;8.43;;;6.87;;
1603;SDS011;795;49.296;11.348;2022-09-09T05:38:48;6.70;;;6.10;;
1603;SDS011;795;49.296;11.348;2022-09-09T05:41:16;7.17;;;6.23;;
1603;SDS011;795;49.296;11.348;2022-09-09T05:43:44;6.83;;;6.00;;
1603;SDS011;795;49.296;11.348;2022-09-09T05:48:46;7.30;;;5.33;;
1603;SDS011;795;49.296;11.348;2022-09-09T05:51:22;6.53;;;6.00;;
1603;SDS011;795;49.296;11.348;2022-09-09T05:53:54;5.63;;;5.03;;
1603;SDS011;795;49.296;11.348;2022-09-09T05:56:23;7.30;;;4.53;;
1603;SDS011;795;49.296;11.348;2022-09-09T05:58:54;5.10;;;4.60;;
1603;SDS011;795;49.296;11.348;2022-09-09T06:01:23;5.97;;;4.10;;
1603;SDS011;795;49.296;11.348;2022-09-09T06:03:55;5.60;;;3.57;;
1603;SDS011;795;49.296;11.348;2022-09-09T06:06:23;4.23;;;3.60;;
1603;SDS011;795;49.296;11.348;2022-09-09T06:09:03;4.97;;;2.93;;
1603;SDS011;795;49.296;11.348;2022-09-09T06:11:39;4.40;;;3.30;;
1603;SDS011;795;49.296;11.348;2022-09-09T06:14:06;3.73;;;3.43;;
1603;SDS011;795;49.296;11.348;2022-09-09T06:16:34;4.20;;;3.57;;
1603;SDS011;795;49.296;11.348;2022-09-09T06:19:03;9.10;;;4.13;;
1603;SDS011;795;49.296;11.348;2022-09-09T06:21:31;4.50;;;3.67;;
1603;SDS011;795;49.296;11.348;2022-09-09T06:24:03;3.40;;;3.10;;
1603;SDS011;795;49.296;11.348;2022-09-09T06:26:34;3.93;;;3.57;;
1603;SDS011;795;49.296;11.348;2022-09-09T06:29:08;3.87;;;3.57;;
1603;SDS011;795;49.296;11.348;2022-09-09T06:31:36;4.50;;;4.07;;
1603;SDS011;795;49.296;11.348;2022-09-09T06:34:05;4.40;;;3.63;;
1603;SDS011;795;49.296;11.348;2022-09-09T06:36:35;4.73;;;3.53;;
1603;SDS011;795;49.296;11.348;2022-09-09T06:39:05;4.20;;;3.90;;
1603;SDS011;795;49.296;11.348;2022-09-09T06:41:39;3.90;;;3.60;;
1603;SDS011;795;49.296;11.348;2022-09-09T06:44:07;4.27;;;3.60;;
1603;SDS011;795;49.296;11.348;2022-09-09T06:46:34;3.73;;;3.20;;
1603;SDS011;795;49.296;11.348;2022-09-09T06:49:01;4.37;;;3.50;;
1603;SDS011;795;49.296;11.348;2022-09-09T06:51:30;3.90;;;3.60;;
1603;SDS011;795;49.296;11.348;2022-09-09T06:54:01;3.77;;;3.47;;
1603;SDS011;795;49.296;11.348;2022-09-09T06:56:40;3.80;;;3.50;;
1603;SDS011;795;49.296;11.348;2022-09-09T06:59:15;5.73;;;4.63;;
1603;SDS011;795;49.296;11.348;2022-09-09T07:01:42;4.90;;;4.17;;
1603;SDS011;795;49.296;11.348;2022-09-09T07:04:11;3.30;;;3.00;;
1603;SDS011;795;49.296;11.348;2022-09-09T07:06:40;3.53;;;2.73;;
1603;SDS011;795;49.296;11.348;2022-09-09T07:09:12;3.87;;;3.57;;
1603;SDS011;795;49.296;11.348;2022-09-09T07:11:43;3.60;;;3.33;;
1603;SDS011;795;49.296;11.348;2022-09-09T07:14:14;11.10;;;2.57;;
1603;SDS011;795;49.296;11.348;2022-09-09T07:16:43;5.00;;;3.07;;
1603;SDS011;795;49.296;11.348;2022-09-09T07:19:12;4.10;;;3.60;;
1603;SDS011;795;49.296;11.348;2022-09-09T07:21:41;4.90;;;3.93;;
1603;SDS011;795;49.296;11.348;2022-09-09T07:24:10;6.60;;;3.63;;
1603;SDS011;795;49.296;11.348;2022-09-09T07:26:39;7.33;;;3.30;;
1603;SDS011;795;49.296;11.348;2022-09-09T07:29:06;3.37;;;2.90;;
1603;SDS011;795;49.296;11.348;2022-09-09T07:31:36;5.60;;;3.60;;
1603;SDS011;795;49.296;11.348;2022-09-09T07:34:06;5.20;;;2.83;;
1603;SDS011;795;49.296;11.348;2022-09-09T07:36:37;3.70;;;3.27;;
1603;SDS011;795;49.296;11.348;2022-09-09T07:39:09;4.10;;;3.33;;
1603;SDS011;795;49.296;11.348;2022-09-09T07:41:43;3.77;;;3.47;;
1603;SDS011;795;49.296;11.348;2022-09-09T07:44:15;3.60;;;2.97;;
1603;SDS011;795;49.296;11.348;2022-09-09T07:46:48;5.10;;;3.57;;
1603;SDS011;795;49.296;11.348;2022-09-09T07:49:16;5.00;;;3.17;;
1603;SDS011;795;49.296;11.348;2022-09-09T07:51:51;3.60;;;2.60;;
1603;SDS011;795;49.296;11.348;2022-09-09T07:54:19;3.30;;;3.00;;
1603;SDS011;795;49.296;11.348;2022-09-09T07:56:50;3.30;;;3.00;;
1603;SDS011;795;49.296;11.348;2022-09-09T07:59:18;3.70;;;2.80;;
1603;SDS011;795;49.296;11.348;2022-09-09T08:03:56;3.50;;;3.13;;
1603;SDS011;795;49.296;11.348;2022-09-09T08:06:27;4.77;;;3.10;;
1603;SDS011;795;49.296;11.348;2022-09-09T08:09:00;6.17;;;2.80;;
1603;SDS011;795;49.296;11.348;2022-09-09T08:11:29;4.00;;;2.50;;
1603;SDS011;795;49.296;11.348;2022-09-09T08:14:04;3.20;;;2.50;;
1603;SDS011;795;49.296;11.348;2022-09-09T08:16:34;3.27;;;2.90;;
1603;SDS011;795;49.296;11.348;2022-09-09T08:19:06;2.83;;;2.40;;
1603;SDS011;795;49.296;11.348;2022-09-09T08:21:35;3.10;;;2.83;;
1603;SDS011;795;49.296;11.348;2022-09-09T08:24:06;2.60;;;2.30;;
1603;SDS011;795;49.296;11.348;2022-09-09T08:26:37;5.40;;;3.00;;
1603;SDS011;795;49.296;11.348;2022-09-09T08:29:09;4.73;;;2.90;;
1603;SDS011;795;49.296;11.348;2022-09-09T08:31:40;3.23;;;2.73;;
1603;SDS011;795;49.296;11.348;2022-09-09T08:34:20;4.53;;;2.57;;
1603;SDS011;795;49.296;11.348;2022-09-09T08:36:49;4.10;;;2.70;;
1603;SDS011;795;49.296;11.348;2022-09-09T08:39:18;6.50;;;2.57;;
1603;SDS011;795;49.296;11.348;2022-09-09T08:48:13;2.80;;;2.23;;
1603;SDS011;795;49.296;11.348;2022-09-09T08:51:07;4.00;;;2.17;;
1603;SDS011;795;49.296;11.348;2022-09-09T08:53:39;3.67;;;2.20;;
1603;SDS011;795;49.296;11.348;2022-09-09T08:56:16;4.70;;;2.83;;
1603;SDS011;795;49.296;11.348;2022-09-09T08:58:53;3.80;;;2.53;;
1603;SDS011;795;49.296;11.348;2022-09-09T09:01:28;3.50;;;2.83;;
1603;SDS011;795;49.296;11.348;2022-09-09T09:07:46;4.10;;;2.80;;
1603;SDS011;795;49.296;11.348;2022-09-09T09:10:47;2.70;;;2.50;;
1603;SDS011;795;49.296;11.348;2022-09-09T09:15:54;5.40;;;3.40;;
1603;SDS011;795;49.296;11.348;2022-09-09T09:18:33;4.67;;;3.00;;
1603;SDS011;795;49.296;11.348;2022-09-09T09:21:13;9.70;;;3.03;;
1603;SDS011;795;49.296;11.348;2022-09-09T09:24:20;6.33;;;2.27;;
1603;SDS011;795;49.296;11.348;2022-09-09T09:27:15;3.83;;;2.20;;
1603;SDS011;795;49.296;11.348;2022-09-09T09:30:05;6.13;;;2.67;;
1603;SDS011;795;49.296;11.348;2022-09-09T09:35:40;3.50;;;1.90;;
1603;SDS011;795;49.296;11.348;2022-09-09T09:38:15;3.83;;;1.90;;
1603;SDS011;795;49.296;11.348;2022-09-09T09:41:11;2.00;;;1.70;;
1603;SDS011;795;49.296;11.348;2022-09-09T09:43:40;2.53;;;1.70;;
1603;SDS011;795;49.296;11.348;2022-09-09T09:46:19;6.10;;;2.30;;
1603;SDS011;795;49.296;11.348;2022-09-09T09:48:59;3.57;;;2.37;;
1603;SDS011;795;49.296;11.348;2022-09-09T09:51:35;4.90;;;2.90;;
1603;SDS011;795;49.296;11.348;2022-09-09T09:54:04;10.07;;;1.90;;
1603;SDS011;795;49.296;11.348;2022-09-09T09:56:42;6.07;;;2.57;;
1603;SDS011;795;49.296;11.348;2022-09-09T10:02:06;4.63;;;2.17;;
1603;SDS011;795;49.296;11.348;2022-09-09T10:04:43;6.20;;;2.77;;
1603;SDS011;795;49.296;11.348;2022-09-09T10:07:12;4.43;;;2.40;;
1603;SDS011;795;49.296;11.348;2022-09-09T10:09:54;2.90;;;1.60;;
1603;SDS011;795;49.296;11.348;2022-09-09T10:12:26;2.57;;;1.63;;
1603;SDS011;795;49.296;11.348;2022-09-09T10:16:13;3.13;;;1.70;;
1603;SDS011;795;49.296;11.348;2022-09-09T10:19:18;2.83;;;1.70;;
1603;SDS011;795;49.296;11.348;2022-09-09T10:22:27;3.37;;;1.67;;
1603;SDS011;795;49.296;11.348;2022-09-09T10:40:38;2.10;;;1.53;;
1603;SDS011;795;49.296;11.348;2022-09-09T10:46:22;5.20;;;1.70;;
1603;SDS011;795;49.296;11.348;2022-09-09T10:56:03;1.90;;;1.47;;
1603;SDS011;795;49.296;11.348;2022-09-09T11:01:24;3.47;;;1.63;;
1603;SDS011;795;49.296;11.348;2022-09-09T11:04:03;1.30;;;1.20;;
1603;SDS011;795;49.296;11.348;2022-09-09T11:06:38;1.27;;;1.10;;
1603;SDS011;795;49.296;11.348;2022-09-09T11:09:15;3.43;;;1.70;;
1603;SDS011;795;49.296;11.348;2022-09-09T11:11:57;3.67;;;1.87;;
1603;SDS011;795;49.296;11.348;2022-09-09T11:14:35;2.20;;;1.40;;
1603;SDS011;795;49.296;11.348;2022-09-09T11:17:31;2.80;;;2.10;;
1603;SDS011;795;49.296;11.348;2022-09-09T11:20:13;4.20;;;1.83;;
1603;SDS011;795;49.296;11.348;2022-09-09T11:25:29;2.23;;;1.50;;
1603;SDS011;795;49.296;11.348;2022-09-09T11:40:59;3.83;;;1.63;;
1603;SDS011;795;49.296;11.348;2022-09-09T11:46:19;2.70;;;2.00;;
1603;SDS011;795;49.296;11.348;2022-09-09T11:49:04;3.73;;;1.97;;
1603;SDS011;795;49.296;11.348;2022-09-09T11:51:53;1.80;;;1.63;;
1603;SDS011;795;49.296;11.348;2022-09-09T11:54:31;4.20;;;2.10;;
1603;SDS011;795;49.296;11.348;2022-09-09T11:57:24;4.53;;;1.90;;
1603;SDS011;795;49.296;11.348;2022-09-09T12:00:03;2.00;;;1.50;;
1603;SDS011;795;49.296;11.348;2022-09-09T12:02:32;2.87;;;1.53;;
1603;SDS011;795;49.296;11.348;2022-09-09T12:05:00;3.23;;;1.63;;
1603;SDS011;795;49.296;11.348;2022-09-09T12:07:41;2.30;;;1.90;;
1603;SDS011;795;49.296;11.348;2022-09-09T12:13:28;4.70;;;1.40;;
1603;SDS011;795;49.296;11.348;2022-09-09T12:15:55;1.97;;;1.43;;
1603;SDS011;795;49.296;11.348;2022-09-09T12:18:38;1.97;;;1.20;;
1603;SDS011;795;49.296;11.348;2022-09-09T12:24:07;2.63;;;1.60;;
1603;SDS011;795;49.296;11.348;2022-09-09T12:32:28;1.83;;;1.60;;
1603;SDS011;795;49.296;11.348;2022-09-09T12:34:59;1.57;;;1.30;;
1603;SDS011;795;49.296;11.348;2022-09-09T12:40:20;2.73;;;1.60;;
1603;SDS011;795;49.296;11.348;2022-09-09T12:42:58;2.23;;;1.53;;
1603;SDS011;795;49.296;11.348;2022-09-09T12:45:31;2.60;;;1.80;;
1603;SDS011;795;49.296;11.348;2022-09-09T12:48:06;1.83;;;1.57;;
1603;SDS011;795;49.296;11.348;2022-09-09T12:50:45;3.10;;;1.30;;
1603;SDS011;795;49.296;11.348;2022-09-09T12:53:29;1.50;;;1.40;;
1603;SDS011;795;49.296;11.348;2022-09-09T12:56:04;2.90;;;1.50;;
1603;SDS011;795;49.296;11.348;2022-09-09T12:58:46;3.80;;;1.73;;
1603;SDS011;795;49.296;11.348;2022-09-09T13:01:28;4.87;;;1.87;;
1603;SDS011;795;49.296;11.348;2022-09-09T13:03:59;4.67;;;1.60;;
1603;SDS011;795;49.296;11.348;2022-09-09T13:06:27;2.80;;;1.70;;
1603;SDS011;795;49.296;11.348;2022-09-09T13:08:59;2.83;;;2.07;;
1603;SDS011;795;49.296;11.348;2022-09-09T13:14:17;1.80;;;1.50;;
1603;SDS011;795;49.296;11.348;2022-09-09T13:17:01;5.17;;;1.47;;
1603;SDS011;795;49.296;11.348;2022-09-09T13:19:34;2.40;;;1.63;;
1603;SDS011;795;49.296;11.348;2022-09-09T13:22:14;7.70;;;1.50;;
1603;SDS011;795;49.296;11.348;2022-09-09T13:28:18;3.27;;;1.30;;
1603;SDS011;795;49.296;11.348;2022-09-09T13:30:58;2.27;;;1.50;;
1603;SDS011;795;49.296;11.348;2022-09-09T13:33:34;2.83;;;1.60;;
1603;SDS011;795;49.296;11.348;2022-09-09T13:36:12;4.27;;;2.07;;
1603;SDS011;795;49.296;11.348;2022-09-09T13:38:53;5.40;;;1.47;;
1603;SDS011;795;49.296;11.348;2022-09-09T13:41:30;4.20;;;1.63;;
1603;SDS011;795;49.296;11.348;2022-09-09T13:44:17;2.67;;;1.77;;
1603;SDS011;795;49.296;11.348;2022-09-09T13:49:45;4.73;;;1.63;;
1603;SDS011;795;49.296;11.348;2022-09-09T13:52:14;3.97;;;1.57;;
1603;SDS011;795;49.296;11.348;2022-09-09T13:54:51;4.50;;;2.03;;
1603;SDS011;795;49.296;11.348;2022-09-09T13:57:23;2.30;;;1.50;;
1603;SDS011;795;49.296;11.348;2022-09-09T13:59:52;1.90;;;1.63;;
1603;SDS011;795;49.296;11.348;2022-09-09T14:02:36;4.40;;;1.73;;
1603;SDS011;795;49.296;11.348;2022-09-09T14:05:04;3.03;;;1.70;;
1603;SDS011;795;49.296;11.348;2022-09-09T14:07:32;2.27;;;1.47;;
1603;SDS011;795;49.296;11.348;2022-09-09T14:09:59;2.13;;;1.60;;
1603;SDS011;795;49.296;11.348;2022-09-09T14:12:26;2.80;;;1.80;;
1603;SDS011;795;49.296;11.348;2022-09-09T14:14:53;1.67;;;1.40;;
1603;SDS011;795;49.296;11.348;2022-09-09T14:17:20;5.53;;;1.57;;
1603;SDS011;795;49.296;11.348;2022-09-09T14:19:48;2.40;;;1.37;;
1603;SDS011;795;49.296;11.348;2022-09-09T14:22:15;2.93;;;1.00;;
1603;SDS011;795;49.296;11.348;2022-09-09T14:24:42;1.53;;;1.43;;
1603;SDS011;795;49.296;11.348;2022-09-09T14:27:09;4.83;;;1.60;;
1603;SDS011;795;49.296;11.348;2022-09-09T14:29:36;3.03;;;1.43;;
1603;SDS011;795;49.296;11.348;2022-09-09T14:32:03;1.80;;;1.30;;
1603;SDS011;795;49.296;11.348;2022-09-09T14:34:35;4.80;;;1.40;;
1603;SDS011;795;49.296;11.348;2022-09-09T14:37:02;1.90;;;1.30;;
1603;SDS011;795;49.296;11.348;2022-09-09T14:39:29;3.33;;;1.30;;
1603;SDS011;795;49.296;11.348;2022-09-09T14:41:56;3.63;;;1.70;;
1603;SDS011;795;49.296;11.348;2022-09-09T14:44:24;3.23;;;1.70;;
1603;SDS011;795;49.296;11.348;2022-09-09T14:46:51;6.90;;;1.97;;
1603;SDS011;795;49.296;11.348;2022-09-09T14:49:18;2.00;;;1.47;;
1603;SDS011;795;49.296;11.348;2022-09-09T14:51:44;5.23;;;1.50;;
1603;SDS011;795;49.296;11.348;2022-09-09T14:54:12;2.43;;;1.70;;
1603;SDS011;795;49.296;11.348;2022-09-09T14:56:38;2.50;;;1.40;;
1603;SDS011;795;49.296;11.348;2022-09-09T14:59:06;2.43;;;1.70;;
1603;SDS011;795;49.296;11.348;2022-09-09T15:01:33;1.60;;;1.40;;
1603;SDS011;795;49.296;11.348;2022-09-09T15:04:02;3.13;;;1.50;;
1603;SDS011;795;49.296;11.348;2022-09-09T15:06:33;2.10;;;1.33;;
1603;SDS011;795;49.296;11.348;2022-09-09T15:09:04;3.00;;;1.70;;
1603;SDS011;795;49.296;11.348;2022-09-09T15:11:33;4.30;;;1.50;;
1603;SDS011;795;49.296;11.348;2022-09-09T15:14:04;2.87;;;1.60;;
1603;SDS011;795;49.296;11.348;2022-09-09T15:16:34;1.40;;;1.30;;
1603;SDS011;795;49.296;11.348;2022-09-09T15:19:01;2.40;;;1.40;;
1603;SDS011;795;49.296;11.348;2022-09-09T15:21:31;5.63;;;1.83;;
1603;SDS011;795;49.296;11.348;2022-09-09T15:24:02;3.43;;;1.30;;
1603;SDS011;795;49.296;11.348;2022-09-09T15:26:30;3.33;;;1.30;;
1603;SDS011;795;49.296;11.348;2022-09-09T15:28:57;1.40;;;1.23;;
1603;SDS011;795;49.296;11.348;2022-09-09T15:31:26;1.90;;;1.17;;
1603;SDS011;795;49.296;11.348;2022-09-09T15:33:58;3.00;;;1.30;;
1603;SDS011;795;49.296;11.348;2022-09-09T15:36:32;4.20;;;1.50;;
1603;SDS011;795;49.296;11.348;2022-09-09T15:39:13;6.13;;;2.13;;
1603;SDS011;795;49.296;11.348;2022-09-09T15:41:44;2.00;;;1.10;;
1603;SDS011;795;49.296;11.348;2022-09-09T15:44:14;2.27;;;1.27;;
1603;SDS011;795;49.296;11.348;2022-09-09T15:46:45;1.83;;;1.20;;
1603;SDS011;795;49.296;11.348;2022-09-09T15:49:20;3.70;;;1.40;;
1603;SDS011;795;49.296;11.348;2022-09-09T15:54:23;2.40;;;1.33;;
1603;SDS011;795;49.296;11.348;2022-09-09T15:56:53;1.57;;;1.47;;
1603;SDS011;795;49.296;11.348;2022-09-09T15:59:25;4.40;;;1.63;;
1603;SDS011;795;49.296;11.348;2022-09-09T16:01:56;1.23;;;1.00;;
1603;SDS011;795;49.296;11.348;2022-09-09T16:04:26;6.03;;;1.67;;
1603;SDS011;795;49.296;11.348;2022-09-09T16:06:56;3.90;;;1.20;;
1603;SDS011;795;49.296;11.348;2022-09-09T16:09:30;6.60;;;1.47;;
1603;SDS011;795;49.296;11.348;2022-09-09T16:12:01;3.50;;;1.40;;
1603;SDS011;795;49.296;11.348;2022-09-09T16:14:32;4.40;;;1.30;;
1603;SDS011;795;49.296;11.348;2022-09-09T16:17:02;4.73;;;1.50;;
1603;SDS011;795;49.296;11.348;2022-09-09T16:19:31;1.50;;;1.10;;
1603;SDS011;795;49.296;11.348;2022-09-09T16:22:00;5.07;;;1.90;;
1603;SDS011;795;49.296;11.348;2022-09-09T16:24:28;1.70;;;0.97;;
1603;SDS011;795;49.296;11.348;2022-09-09T16:26:56;3.50;;;1.20;;
1603;SDS011;795;49.296;11.348;2022-09-09T16:29:23;4.40;;;1.47;;
1603;SDS011;795;49.296;11.348;2022-09-09T16:31:53;3.67;;;1.37;;
1603;SDS011;795;49.296;11.348;2022-09-09T16:34:27;3.10;;;2.10;;
1603;SDS011;795;49.296;11.348;2022-09-09T16:36:55;13.30;;;4.20;;
1603;SDS011;795;49.296;11.348;2022-09-09T16:39:22;2.80;;;1.87;;
1603;SDS011;795;49.296;11.348;2022-09-09T16:41:49;2.07;;;1.20;;
1603;SDS011;795;49.296;11.348;2022-09-09T16:44:17;2.70;;;1.40;;
1603;SDS011;795;49.296;11.348;2022-09-09T16:46:45;2.70;;;1.57;;
1603;SDS011;795;49.296;11.348;2022-09-09T16:49:24;2.50;;;1.53;;
1603;SDS011;795;49.296;11.348;2022-09-09T16:51:53;5.40;;;1.70;;
1603;SDS011;795;49.296;11.348;2022-09-09T16:54:20;2.77;;;1.50;;
1603;SDS011;795;49.296;11.348;2022-09-09T16:56:47;2.00;;;1.80;;
1603;SDS011;795;49.296;11.348;2022-09-09T16:59:18;5.60;;;2.20;;
1603;SDS011;795;49.296;11.348;2022-09-09T17:01:49;5.23;;;2.40;;
1603;SDS011;795;49.296;11.348;2022-09-09T17:04:19;2.70;;;2.17;;
1603;SDS011;795;49.296;11.348;2022-09-09T17:06:52;2.37;;;1.70;;
1603;SDS011;795;49.296;11.348;2022-09-09T17:09:21;2.67;;;2.07;;
1603;SDS011;795;49.296;11.348;2022-09-09T17:11:54;3.03;;;1.90;;
1603;SDS011;795;49.296;11.348;2022-09-09T17:14:21;2.30;;;1.83;;
1603;SDS011;795;49.296;11.348;2022-09-09T17:16:49;2.50;;;1.63;;
1603;SDS011;795;49.296;11.348;2022-09-09T17:19:17;6.00;;;1.87;;
1603;SDS011;795;49.296;11.348;2022-09-09T17:21:44;2.27;;;2.07;;
1603;SDS011;795;49.296;11.348;2022-09-09T17:24:33;4.27;;;2.47;;
1603;SDS011;795;49.296;11.348;2022-09-09T17:27:01;4.27;;;2.87;;
1603;SDS011;795;49.296;11.348;2022-09-09T17:29:28;5.53;;;3.07;;
1603;SDS011;795;49.296;11.348;2022-09-09T17:31:55;3.50;;;2.00;;
1603;SDS011;795;49.296;11.348;2022-09-09T17:34:22;3.80;;;2.07;;
1603;SDS011;795;49.296;11.348;2022-09-09T17:36:51;4.90;;;2.33;;
1603;SDS011;795;49.296;11.348;2022-09-09T17:39:18;5.07;;;3.00;;
1603;SDS011;795;49.296;11.348;2022-09-09T17:41:45;2.27;;;2.07;;
1603;SDS011;795;49.296;11.348;2022-09-09T17:44:12;4.10;;;2.60;;
1603;SDS011;795;49.296;11.348;2022-09-09T17:46:40;5.50;;;3.20;;
1603;SDS011;795;49.296;11.348;2022-09-09T17:49:10;3.50;;;3.20;;
1603;SDS011;795;49.296;11.348;2022-09-09T17:51:42;3.60;;;3.03;;
1603;SDS011;795;49.296;11.348;2022-09-09T17:54:12;3.20;;;2.30;;
1603;SDS011;795;49.296;11.348;2022-09-09T17:56:45;3.13;;;2.50;;
1603;SDS011;795;49.296;11.348;2022-09-09T17:59:14;3.33;;;2.10;;
1603;SDS011;795;49.296;11.348;2022-09-09T18:01:45;3.03;;;2.10;;
1603;SDS011;795;49.296;11.348;2022-09-09T18:04:16;3.27;;;2.10;;
1603;SDS011;795;49.296;11.348;2022-09-09T18:06:45;3.03;;;2.10;;
1603;SDS011;795;49.296;11.348;2022-09-09T18:09:18;3.33;;;1.90;;
1603;SDS011;795;49.296;11.348;2022-09-09T18:11:51;3.93;;;2.40;;
1603;SDS011;795;49.296;11.348;2022-09-09T18:14:24;4.00;;;1.90;;
1603;SDS011;795;49.296;11.348;2022-09-09T18:16:57;4.67;;;1.80;;
1603;SDS011;795;49.296;11.348;2022-09-09T18:19:27;2.80;;;1.50;;
1603;SDS011;795;49.296;11.348;2022-09-09T18:21:58;6.87;;;2.07;;
1603;SDS011;795;49.296;11.348;2022-09-09T18:24:28;3.23;;;2.00;;